sensor_id;sensor_type;location;lat;lon;timestamp;P1;durP1;ratioP1;P2;durP2;ratioP2
42148;SDS011;64624;47.208;8.706;2024-02-23T00:00:49;1.00;;;0.95;;
42148;SDS011;64624;47.208;8.706;2024-02-23T00:03:15;0.20;;;0.20;;
42148;SDS011;64624;47.208;8.706;2024-02-23T00:05:41;0.32;;;0.30;;
42148;SDS011;64624;47.208;8.706;2024-02-23T00:08:06;0.32;;;0.20;;
42148;SDS011;64624;47.208;8.706;2024-02-23T00:10:34;0.45;;;0.20;;
42148;SDS011;64624;47.208;8.706;2024-02-23T00:13:00;0.30;;;0.20;;
42148;SDS011;64624;47.208;8.706;2024-02-23T00:15:26;0.77;;;0.20;;
42148;SDS011;64624;47.208;8.706;2024-02-23T00:17:51;0.20;;;0.20;;
42148;SDS011;64624;47.208;8.706;2024-02-23T00:20:17;0.30;;;0.20;;
42148;SDS011;64624;47.208;8.706;2024-02-23T00:22:43;2.28;;;1.27;;
42148;SDS011;64624;47.208;8.706;2024-02-23T00:25:09;0.20;;;0.20;;
42148;SDS011;64624;47.208;8.706;2024-02-23T00:27:34;0.20;;;0.20;;
42148;SDS011;64624;47.208;8.706;2024-02-23T00:30:00;0.20;;;0.20;;
42148;SDS011;64624;47.208;8.706;2024-02-23T00:32:27;0.20;;;0.20;;
42148;SDS011;64624;47.208;8.706;2024-02-23T00:34:52;0.20;;;0.20;;
42148;SDS011;64624;47.208;8.706;2024-02-23T00:37:18;0.20;;;0.20;;
42148;SDS011;64624;47.208;8.706;2024-02-23T00:39:44;0.28;;;0.20;;
42148;SDS011;64624;47.208;8.706;2024-02-23T00:42:09;0.20;;;0.20;;
42148;SDS011;64624;47.208;8.706;2024-02-23T00:44:35;0.20;;;0.20;;
42148;SDS011;64624;47.208;8.706;2024-02-23T00:47:02;0.20;;;0.20;;
42148;SDS011;64624;47.208;8.706;2024-02-23T00:49:29;0.20;;;0.20;;
42148;SDS011;64624;47.208;8.706;2024-02-23T00:51:55;0.20;;;0.20;;
42148;SDS011;64624;47.208;8.706;2024-02-23T00:54:21;3.08;;;0.30;;
42148;SDS011;64624;47.208;8.706;2024-02-23T00:56:46;0.20;;;0.20;;
42148;SDS011;64624;47.208;8.706;2024-02-23T00:59:12;0.20;;;0.20;;
42148;SDS011;64624;47.208;8.706;2024-02-23T01:01:38;0.30;;;0.30;;
42148;SDS011;64624;47.208;8.706;2024-02-23T01:04:04;0.20;;;0.20;;
42148;SDS011;64624;47.208;8.706;2024-02-23T01:06:29;0.20;;;0.20;;
42148;SDS011;64624;47.208;8.706;2024-02-23T01:08:55;0.20;;;0.20;;
42148;SDS011;64624;47.208;8.706;2024-02-23T01:11:21;0.20;;;0.20;;
42148;SDS011;64624;47.208;8.706;2024-02-23T01:13:46;0.20;;;0.20;;
42148;SDS011;64624;47.208;8.706;2024-02-23T01:16:12;0.20;;;0.20;;
42148;SDS011;64624;47.208;8.706;2024-02-23T01:18:38;0.20;;;0.20;;
42148;SDS011;64624;47.208;8.706;2024-02-23T01:21:03;0.20;;;0.20;;
42148;SDS011;64624;47.208;8.706;2024-02-23T01:23:29;0.30;;;0.30;;
42148;SDS011;64624;47.208;8.706;2024-02-23T01:25:55;0.20;;;0.20;;
42148;SDS011;64624;47.208;8.706;2024-02-23T01:28:20;0.20;;;0.20;;
42148;SDS011;64624;47.208;8.706;2024-02-23T01:30:46;0.90;;;0.22;;
42148;SDS011;64624;47.208;8.706;2024-02-23T01:33:12;0.20;;;0.20;;
42148;SDS011;64624;47.208;8.706;2024-02-23T01:35:38;0.47;;;0.28;;
42148;SDS011;64624;47.208;8.706;2024-02-23T01:38:03;0.20;;;0.20;;
42148;SDS011;64624;47.208;8.706;2024-02-23T01:40:30;0.45;;;0.30;;
42148;SDS011;64624;47.208;8.706;2024-02-23T01:43:04;0.20;;;0.20;;
42148;SDS011;64624;47.208;8.706;2024-02-23T01:45:31;0.10;;;0.10;;
42148;SDS011;64624;47.208;8.706;2024-02-23T01:48:00;1.10;;;0.47;;
42148;SDS011;64624;47.208;8.706;2024-02-23T01:52:53;0.20;;;0.20;;
42148;SDS011;64624;47.208;8.706;2024-02-23T01:55:22;0.32;;;0.30;;
42148;SDS011;64624;47.208;8.706;2024-02-23T01:57:48;0.25;;;0.25;;
42148;SDS011;64624;47.208;8.706;2024-02-23T02:00:15;0.20;;;0.20;;
42148;SDS011;64624;47.208;8.706;2024-02-23T02:02:43;0.22;;;0.20;;
42148;SDS011;64624;47.208;8.706;2024-02-23T02:05:09;0.20;;;0.20;;
42148;SDS011;64624;47.208;8.706;2024-02-23T02:07:35;0.20;;;0.20;;
42148;SDS011;64624;47.208;8.706;2024-02-23T02:10:01;0.20;;;0.20;;
42148;SDS011;64624;47.208;8.706;2024-02-23T02:12:28;0.22;;;0.20;;
42148;SDS011;64624;47.208;8.706;2024-02-23T02:14:54;0.20;;;0.20;;
42148;SDS011;64624;47.208;8.706;2024-02-23T02:17:21;0.20;;;0.20;;
42148;SDS011;64624;47.208;8.706;2024-02-23T02:19:50;0.25;;;0.25;;
42148;SDS011;64624;47.208;8.706;2024-02-23T02:22:15;0.20;;;0.20;;
42148;SDS011;64624;47.208;8.706;2024-02-23T02:24:41;0.20;;;0.20;;
42148;SDS011;64624;47.208;8.706;2024-02-23T02:27:08;0.20;;;0.20;;
42148;SDS011;64624;47.208;8.706;2024-02-23T02:29:35;0.20;;;0.20;;
42148;SDS011;64624;47.208;8.706;2024-02-23T02:32:00;0.20;;;0.20;;
42148;SDS011;64624;47.208;8.706;2024-02-23T02:34:27;0.15;;;0.15;;
42148;SDS011;64624;47.208;8.706;2024-02-23T02:36:54;0.30;;;0.20;;
42148;SDS011;64624;47.208;8.706;2024-02-23T02:39:20;0.20;;;0.20;;
42148;SDS011;64624;47.208;8.706;2024-02-23T02:41:47;0.47;;;0.30;;
42148;SDS011;64624;47.208;8.706;2024-02-23T02:44:13;0.52;;;0.30;;
42148;SDS011;64624;47.208;8.706;2024-02-23T02:46:40;1.10;;;0.30;;
42148;SDS011;64624;47.208;8.706;2024-02-23T02:49:06;0.25;;;0.20;;
42148;SDS011;64624;47.208;8.706;2024-02-23T02:51:32;0.20;;;0.20;;
42148;SDS011;64624;47.208;8.706;2024-02-23T02:53:57;0.20;;;0.20;;
42148;SDS011;64624;47.208;8.706;2024-02-23T02:56:23;0.28;;;0.28;;
42148;SDS011;64624;47.208;8.706;2024-02-23T02:58:49;0.50;;;0.30;;
42148;SDS011;64624;47.208;8.706;2024-02-23T03:01:15;0.22;;;0.22;;
42148;SDS011;64624;47.208;8.706;2024-02-23T03:03:40;0.28;;;0.28;;
42148;SDS011;64624;47.208;8.706;2024-02-23T03:06:06;0.47;;;0.30;;
42148;SDS011;64624;47.208;8.706;2024-02-23T03:08:33;0.75;;;0.30;;
42148;SDS011;64624;47.208;8.706;2024-02-23T03:10:59;1.25;;;0.20;;
42148;SDS011;64624;47.208;8.706;2024-02-23T03:13:24;0.28;;;0.25;;
42148;SDS011;64624;47.208;8.706;2024-02-23T03:15:50;0.60;;;0.30;;
42148;SDS011;64624;47.208;8.706;2024-02-23T03:18:16;0.40;;;0.25;;
42148;SDS011;64624;47.208;8.706;2024-02-23T03:20:42;1.65;;;0.63;;
42148;SDS011;64624;47.208;8.706;2024-02-23T03:23:08;0.60;;;0.30;;
42148;SDS011;64624;47.208;8.706;2024-02-23T03:25:34;0.63;;;0.30;;
42148;SDS011;64624;47.208;8.706;2024-02-23T03:28:00;0.32;;;0.30;;
42148;SDS011;64624;47.208;8.706;2024-02-23T03:30:26;0.57;;;0.40;;
42148;SDS011;64624;47.208;8.706;2024-02-23T03:32:51;1.08;;;0.30;;
42148;SDS011;64624;47.208;8.706;2024-02-23T03:35:17;0.95;;;0.40;;
42148;SDS011;64624;47.208;8.706;2024-02-23T03:37:43;0.80;;;0.30;;
42148;SDS011;64624;47.208;8.706;2024-02-23T03:40:09;0.43;;;0.20;;
42148;SDS011;64624;47.208;8.706;2024-02-23T03:42:38;0.57;;;0.30;;
42148;SDS011;64624;47.208;8.706;2024-02-23T03:45:04;0.68;;;0.30;;
42148;SDS011;64624;47.208;8.706;2024-02-23T03:47:30;1.80;;;0.63;;
42148;SDS011;64624;47.208;8.706;2024-02-23T03:49:56;0.90;;;0.30;;
42148;SDS011;64624;47.208;8.706;2024-02-23T03:52:22;1.05;;;0.22;;
42148;SDS011;64624;47.208;8.706;2024-02-23T03:54:48;0.38;;;0.30;;
42148;SDS011;64624;47.208;8.706;2024-02-23T03:57:14;1.55;;;0.63;;
42148;SDS011;64624;47.208;8.706;2024-02-23T03:59:40;0.85;;;0.40;;
42148;SDS011;64624;47.208;8.706;2024-02-23T04:02:19;0.80;;;0.80;;
42148;SDS011;64624;47.208;8.706;2024-02-23T04:04:45;1.45;;;0.30;;
42148;SDS011;64624;47.208;8.706;2024-02-23T04:07:12;0.70;;;0.30;;
42148;SDS011;64624;47.208;8.706;2024-02-23T04:09:38;0.30;;;0.30;;
42148;SDS011;64624;47.208;8.706;2024-02-23T04:12:05;0.20;;;0.20;;
42148;SDS011;64624;47.208;8.706;2024-02-23T04:14:32;0.30;;;0.30;;
42148;SDS011;64624;47.208;8.706;2024-02-23T04:17:01;0.73;;;0.30;;
42148;SDS011;64624;47.208;8.706;2024-02-23T04:19:29;1.05;;;0.30;;
42148;SDS011;64624;47.208;8.706;2024-02-23T04:21:55;0.68;;;0.30;;
42148;SDS011;64624;47.208;8.706;2024-02-23T04:24:21;1.48;;;0.35;;
42148;SDS011;64624;47.208;8.706;2024-02-23T04:26:47;1.48;;;0.30;;
42148;SDS011;64624;47.208;8.706;2024-02-23T04:29:12;1.13;;;0.40;;
42148;SDS011;64624;47.208;8.706;2024-02-23T04:31:38;0.63;;;0.30;;
42148;SDS011;64624;47.208;8.706;2024-02-23T04:34:04;0.30;;;0.20;;
42148;SDS011;64624;47.208;8.706;2024-02-23T04:36:30;1.17;;;0.20;;
42148;SDS011;64624;47.208;8.706;2024-02-23T04:38:56;2.20;;;0.30;;
42148;SDS011;64624;47.208;8.706;2024-02-23T04:41:22;0.80;;;0.20;;
42148;SDS011;64624;47.208;8.706;2024-02-23T04:43:48;1.23;;;0.38;;
42148;SDS011;64624;47.208;8.706;2024-02-23T04:46:14;0.68;;;0.38;;
42148;SDS011;64624;47.208;8.706;2024-02-23T04:48:40;0.65;;;0.30;;
42148;SDS011;64624;47.208;8.706;2024-02-23T04:51:06;0.63;;;0.30;;
42148;SDS011;64624;47.208;8.706;2024-02-23T04:53:38;0.82;;;0.30;;
42148;SDS011;64624;47.208;8.706;2024-02-23T04:56:06;0.30;;;0.30;;
42148;SDS011;64624;47.208;8.706;2024-02-23T04:58:32;0.82;;;0.30;;
42148;SDS011;64624;47.208;8.706;2024-02-23T05:00:58;1.92;;;0.50;;
42148;SDS011;64624;47.208;8.706;2024-02-23T05:03:23;0.57;;;0.28;;
42148;SDS011;64624;47.208;8.706;2024-02-23T05:05:49;0.68;;;0.30;;
42148;SDS011;64624;47.208;8.706;2024-02-23T05:08:19;1.25;;;0.40;;
42148;SDS011;64624;47.208;8.706;2024-02-23T05:10:48;0.73;;;0.32;;
42148;SDS011;64624;47.208;8.706;2024-02-23T05:13:13;0.63;;;0.20;;
42148;SDS011;64624;47.208;8.706;2024-02-23T05:15:40;0.20;;;0.20;;
42148;SDS011;64624;47.208;8.706;2024-02-23T05:18:05;0.30;;;0.22;;
42148;SDS011;64624;47.208;8.706;2024-02-23T05:20:31;1.15;;;0.40;;
42148;SDS011;64624;47.208;8.706;2024-02-23T05:22:57;0.93;;;0.20;;
42148;SDS011;64624;47.208;8.706;2024-02-23T05:25:23;0.52;;;0.30;;
42148;SDS011;64624;47.208;8.706;2024-02-23T05:27:50;0.70;;;0.30;;
42148;SDS011;64624;47.208;8.706;2024-02-23T05:30:16;0.63;;;0.38;;
42148;SDS011;64624;47.208;8.706;2024-02-23T05:32:42;0.20;;;0.20;;
42148;SDS011;64624;47.208;8.706;2024-02-23T05:35:08;0.40;;;0.30;;
42148;SDS011;64624;47.208;8.706;2024-02-23T05:37:35;1.35;;;0.32;;
42148;SDS011;64624;47.208;8.706;2024-02-23T05:40:01;0.90;;;0.40;;
42148;SDS011;64624;47.208;8.706;2024-02-23T05:42:31;0.77;;;0.30;;
42148;SDS011;64624;47.208;8.706;2024-02-23T05:44:57;0.95;;;0.30;;
42148;SDS011;64624;47.208;8.706;2024-02-23T05:47:23;1.23;;;0.40;;
42148;SDS011;64624;47.208;8.706;2024-02-23T05:49:50;0.50;;;0.38;;
42148;SDS011;64624;47.208;8.706;2024-02-23T05:52:16;0.68;;;0.40;;
42148;SDS011;64624;47.208;8.706;2024-02-23T05:54:42;1.88;;;0.40;;
42148;SDS011;64624;47.208;8.706;2024-02-23T05:57:07;0.50;;;0.32;;
42148;SDS011;64624;47.208;8.706;2024-02-23T05:59:33;1.13;;;0.40;;
42148;SDS011;64624;47.208;8.706;2024-02-23T06:01:59;1.10;;;0.38;;
42148;SDS011;64624;47.208;8.706;2024-02-23T06:04:24;0.73;;;0.40;;
42148;SDS011;64624;47.208;8.706;2024-02-23T06:06:50;0.63;;;0.30;;
42148;SDS011;64624;47.208;8.706;2024-02-23T06:09:16;1.02;;;0.50;;
42148;SDS011;64624;47.208;8.706;2024-02-23T06:11:42;1.25;;;0.40;;
42148;SDS011;64624;47.208;8.706;2024-02-23T06:14:08;1.38;;;0.40;;
42148;SDS011;64624;47.208;8.706;2024-02-23T06:16:34;0.80;;;0.40;;
42148;SDS011;64624;47.208;8.706;2024-02-23T06:18:59;0.90;;;0.38;;
42148;SDS011;64624;47.208;8.706;2024-02-23T06:21:25;0.90;;;0.40;;
42148;SDS011;64624;47.208;8.706;2024-02-23T06:23:51;1.92;;;0.60;;
42148;SDS011;64624;47.208;8.706;2024-02-23T06:26:18;2.05;;;0.43;;
42148;SDS011;64624;47.208;8.706;2024-02-23T06:28:43;0.75;;;0.60;;
42148;SDS011;64624;47.208;8.706;2024-02-23T06:31:09;0.63;;;0.40;;
42148;SDS011;64624;47.208;8.706;2024-02-23T06:33:35;0.95;;;0.50;;
42148;SDS011;64624;47.208;8.706;2024-02-23T06:36:00;1.58;;;0.43;;
42148;SDS011;64624;47.208;8.706;2024-02-23T06:38:27;0.85;;;0.47;;
42148;SDS011;64624;47.208;8.706;2024-02-23T06:40:53;2.15;;;0.60;;
42148;SDS011;64624;47.208;8.706;2024-02-23T06:43:20;0.30;;;0.28;;
42148;SDS011;64624;47.208;8.706;2024-02-23T06:45:46;1.13;;;0.50;;
42148;SDS011;64624;47.208;8.706;2024-02-23T06:48:11;2.60;;;0.93;;
42148;SDS011;64624;47.208;8.706;2024-02-23T06:50:37;1.00;;;0.50;;
42148;SDS011;64624;47.208;8.706;2024-02-23T06:53:03;0.30;;;0.30;;
42148;SDS011;64624;47.208;8.706;2024-02-23T06:55:29;0.40;;;0.30;;
42148;SDS011;64624;47.208;8.706;2024-02-23T06:57:54;2.45;;;0.50;;
42148;SDS011;64624;47.208;8.706;2024-02-23T07:00:20;1.13;;;0.45;;
42148;SDS011;64624;47.208;8.706;2024-02-23T07:02:46;2.13;;;0.55;;
42148;SDS011;64624;47.208;8.706;2024-02-23T07:05:12;0.80;;;0.50;;
42148;SDS011;64624;47.208;8.706;2024-02-23T07:07:40;1.10;;;0.50;;
42148;SDS011;64624;47.208;8.706;2024-02-23T07:10:06;1.00;;;0.40;;
42148;SDS011;64624;47.208;8.706;2024-02-23T07:12:33;1.55;;;0.50;;
42148;SDS011;64624;47.208;8.706;2024-02-23T07:14:58;1.98;;;0.50;;
42148;SDS011;64624;47.208;8.706;2024-02-23T07:17:24;1.33;;;0.50;;
42148;SDS011;64624;47.208;8.706;2024-02-23T07:19:50;0.77;;;0.40;;
42148;SDS011;64624;47.208;8.706;2024-02-23T07:22:17;1.20;;;0.43;;
42148;SDS011;64624;47.208;8.706;2024-02-23T07:24:44;1.13;;;0.50;;
42148;SDS011;64624;47.208;8.706;2024-02-23T07:27:10;1.88;;;0.57;;
42148;SDS011;64624;47.208;8.706;2024-02-23T07:29:35;1.40;;;0.50;;
42148;SDS011;64624;47.208;8.706;2024-02-23T07:32:01;1.20;;;0.47;;
42148;SDS011;64624;47.208;8.706;2024-02-23T07:34:27;1.10;;;0.50;;
42148;SDS011;64624;47.208;8.706;2024-02-23T07:36:54;2.13;;;0.50;;
42148;SDS011;64624;47.208;8.706;2024-02-23T07:39:20;1.75;;;0.57;;
42148;SDS011;64624;47.208;8.706;2024-02-23T07:41:47;1.98;;;0.60;;
42148;SDS011;64624;47.208;8.706;2024-02-23T07:44:13;1.58;;;0.50;;
42148;SDS011;64624;47.208;8.706;2024-02-23T07:46:38;1.58;;;0.50;;
42148;SDS011;64624;47.208;8.706;2024-02-23T07:49:04;1.15;;;0.50;;
42148;SDS011;64624;47.208;8.706;2024-02-23T07:54:00;1.13;;;0.50;;
42148;SDS011;64624;47.208;8.706;2024-02-23T07:56:26;2.13;;;0.57;;
42148;SDS011;64624;47.208;8.706;2024-02-23T07:58:52;1.73;;;0.82;;
42148;SDS011;64624;47.208;8.706;2024-02-23T08:01:18;2.80;;;0.85;;
42148;SDS011;64624;47.208;8.706;2024-02-23T08:03:44;1.75;;;0.60;;
42148;SDS011;64624;47.208;8.706;2024-02-23T08:06:10;1.52;;;0.60;;
42148;SDS011;64624;47.208;8.706;2024-02-23T08:08:37;1.73;;;0.60;;
42148;SDS011;64624;47.208;8.706;2024-02-23T08:11:03;1.88;;;0.50;;
42148;SDS011;64624;47.208;8.706;2024-02-23T08:13:30;1.15;;;0.57;;
42148;SDS011;64624;47.208;8.706;2024-02-23T08:15:56;1.02;;;0.50;;
42148;SDS011;64624;47.208;8.706;2024-02-23T08:18:23;1.70;;;0.60;;
42148;SDS011;64624;47.208;8.706;2024-02-23T08:20:48;2.05;;;0.60;;
42148;SDS011;64624;47.208;8.706;2024-02-23T08:23:14;1.33;;;0.52;;
42148;SDS011;64624;47.208;8.706;2024-02-23T08:25:40;2.10;;;0.68;;
42148;SDS011;64624;47.208;8.706;2024-02-23T08:28:07;1.88;;;0.60;;
42148;SDS011;64624;47.208;8.706;2024-02-23T08:30:33;1.30;;;0.50;;
42148;SDS011;64624;47.208;8.706;2024-02-23T08:32:59;1.17;;;0.40;;
42148;SDS011;64624;47.208;8.706;2024-02-23T08:35:25;2.20;;;0.50;;
42148;SDS011;64624;47.208;8.706;2024-02-23T08:37:51;0.50;;;0.40;;
42148;SDS011;64624;47.208;8.706;2024-02-23T08:40:17;1.40;;;0.40;;
42148;SDS011;64624;47.208;8.706;2024-02-23T08:42:42;2.42;;;0.50;;
42148;SDS011;64624;47.208;8.706;2024-02-23T08:45:08;2.42;;;0.52;;
42148;SDS011;64624;47.208;8.706;2024-02-23T08:47:38;3.28;;;0.60;;
42148;SDS011;64624;47.208;8.706;2024-02-23T08:50:05;1.95;;;0.68;;
42148;SDS011;64624;47.208;8.706;2024-02-23T08:52:31;1.05;;;0.40;;
42148;SDS011;64624;47.208;8.706;2024-02-23T08:54:57;3.75;;;0.80;;
42148;SDS011;64624;47.208;8.706;2024-02-23T08:57:22;1.00;;;0.40;;
42148;SDS011;64624;47.208;8.706;2024-02-23T08:59:49;2.47;;;0.63;;
42148;SDS011;64624;47.208;8.706;2024-02-23T09:02:15;0.95;;;0.50;;
42148;SDS011;64624;47.208;8.706;2024-02-23T09:04:40;2.42;;;0.68;;
42148;SDS011;64624;47.208;8.706;2024-02-23T09:07:06;0.85;;;0.43;;
42148;SDS011;64624;47.208;8.706;2024-02-23T09:09:32;1.08;;;0.40;;
42148;SDS011;64624;47.208;8.706;2024-02-23T09:11:57;1.42;;;0.50;;
42148;SDS011;64624;47.208;8.706;2024-02-23T09:14:23;1.77;;;0.50;;
42148;SDS011;64624;47.208;8.706;2024-02-23T09:16:50;2.30;;;0.47;;
42148;SDS011;64624;47.208;8.706;2024-02-23T09:19:17;1.75;;;0.60;;
42148;SDS011;64624;47.208;8.706;2024-02-23T09:21:43;1.52;;;0.50;;
42148;SDS011;64624;47.208;8.706;2024-02-23T09:24:09;2.90;;;0.70;;
42148;SDS011;64624;47.208;8.706;2024-02-23T09:26:35;1.88;;;0.60;;
42148;SDS011;64624;47.208;8.706;2024-02-23T09:29:01;2.22;;;0.88;;
42148;SDS011;64624;47.208;8.706;2024-02-23T09:31:27;1.42;;;0.60;;
42148;SDS011;64624;47.208;8.706;2024-02-23T09:33:56;2.53;;;0.60;;
42148;SDS011;64624;47.208;8.706;2024-02-23T09:36:22;1.23;;;0.60;;
42148;SDS011;64624;47.208;8.706;2024-02-23T09:38:49;2.47;;;0.60;;
42148;SDS011;64624;47.208;8.706;2024-02-23T09:41:22;2.50;;;1.58;;
42148;SDS011;64624;47.208;8.706;2024-02-23T09:43:49;1.80;;;0.70;;
42148;SDS011;64624;47.208;8.706;2024-02-23T09:46:16;2.70;;;1.05;;
42148;SDS011;64624;47.208;8.706;2024-02-23T09:48:43;3.13;;;0.63;;
42148;SDS011;64624;47.208;8.706;2024-02-23T09:51:09;1.23;;;0.50;;
42148;SDS011;64624;47.208;8.706;2024-02-23T09:53:39;1.70;;;0.60;;
42148;SDS011;64624;47.208;8.706;2024-02-23T09:56:06;1.98;;;0.50;;
42148;SDS011;64624;47.208;8.706;2024-02-23T09:58:33;1.48;;;0.68;;
42148;SDS011;64624;47.208;8.706;2024-02-23T10:01:01;2.05;;;0.63;;
42148;SDS011;64624;47.208;8.706;2024-02-23T10:03:28;1.92;;;0.60;;
42148;SDS011;64624;47.208;8.706;2024-02-23T10:05:55;1.88;;;1.00;;
42148;SDS011;64624;47.208;8.706;2024-02-23T10:08:22;2.15;;;0.60;;
42148;SDS011;64624;47.208;8.706;2024-02-23T10:10:47;2.33;;;0.65;;
42148;SDS011;64624;47.208;8.706;2024-02-23T10:13:20;3.03;;;0.60;;
42148;SDS011;64624;47.208;8.706;2024-02-23T10:15:47;1.75;;;0.40;;
42148;SDS011;64624;47.208;8.706;2024-02-23T10:18:13;1.67;;;0.50;;
42148;SDS011;64624;47.208;8.706;2024-02-23T10:20:40;2.03;;;0.60;;
42148;SDS011;64624;47.208;8.706;2024-02-23T10:23:07;3.17;;;0.70;;
42148;SDS011;64624;47.208;8.706;2024-02-23T10:25:34;2.22;;;0.63;;
42148;SDS011;64624;47.208;8.706;2024-02-23T10:28:03;1.77;;;0.60;;
42148;SDS011;64624;47.208;8.706;2024-02-23T10:30:30;1.88;;;0.60;;
42148;SDS011;64624;47.208;8.706;2024-02-23T10:32:58;1.38;;;0.50;;
42148;SDS011;64624;47.208;8.706;2024-02-23T10:35:25;2.17;;;0.60;;
42148;SDS011;64624;47.208;8.706;2024-02-23T10:37:52;3.25;;;0.75;;
42148;SDS011;64624;47.208;8.706;2024-02-23T10:40:20;3.92;;;0.82;;
42148;SDS011;64624;47.208;8.706;2024-02-23T10:42:49;3.73;;;0.50;;
42148;SDS011;64624;47.208;8.706;2024-02-23T10:45:20;1.80;;;0.60;;
42148;SDS011;64624;47.208;8.706;2024-02-23T10:47:50;1.83;;;0.55;;
42148;SDS011;64624;47.208;8.706;2024-02-23T10:50:17;2.17;;;0.40;;
42148;SDS011;64624;47.208;8.706;2024-02-23T10:52:44;2.97;;;0.80;;
42148;SDS011;64624;47.208;8.706;2024-02-23T10:55:11;1.48;;;1.20;;
42148;SDS011;64624;47.208;8.706;2024-02-23T10:57:37;2.13;;;0.50;;
42148;SDS011;64624;47.208;8.706;2024-02-23T11:00:07;0.98;;;0.45;;
42148;SDS011;64624;47.208;8.706;2024-02-23T11:05:07;2.08;;;0.60;;
42148;SDS011;64624;47.208;8.706;2024-02-23T11:07:40;2.63;;;0.60;;
42148;SDS011;64624;47.208;8.706;2024-02-23T11:10:06;1.88;;;0.60;;
42148;SDS011;64624;47.208;8.706;2024-02-23T11:12:34;2.08;;;0.65;;
42148;SDS011;64624;47.208;8.706;2024-02-23T11:15:01;1.77;;;0.52;;
42148;SDS011;64624;47.208;8.706;2024-02-23T11:17:28;1.95;;;0.90;;
42148;SDS011;64624;47.208;8.706;2024-02-23T11:19:56;2.42;;;0.90;;
42148;SDS011;64624;47.208;8.706;2024-02-23T11:22:25;2.22;;;0.70;;
42148;SDS011;64624;47.208;8.706;2024-02-23T11:25:01;2.67;;;0.70;;
42148;SDS011;64624;47.208;8.706;2024-02-23T11:30:06;1.67;;;0.60;;
42148;SDS011;64624;47.208;8.706;2024-02-23T11:32:40;1.35;;;0.50;;
42148;SDS011;64624;47.208;8.706;2024-02-23T11:35:08;2.13;;;0.63;;
42148;SDS011;64624;47.208;8.706;2024-02-23T11:37:45;1.67;;;0.50;;
42148;SDS011;64624;47.208;8.706;2024-02-23T11:40:12;1.88;;;0.60;;
42148;SDS011;64624;47.208;8.706;2024-02-23T11:42:39;4.00;;;0.50;;
42148;SDS011;64624;47.208;8.706;2024-02-23T11:45:07;2.25;;;0.57;;
42148;SDS011;64624;47.208;8.706;2024-02-23T11:47:33;1.63;;;0.57;;
42148;SDS011;64624;47.208;8.706;2024-02-23T11:49:59;1.20;;;0.52;;
42148;SDS011;64624;47.208;8.706;2024-02-23T11:52:24;2.38;;;0.60;;
42148;SDS011;64624;47.208;8.706;2024-02-23T11:54:50;1.13;;;0.50;;
42148;SDS011;64624;47.208;8.706;2024-02-23T11:57:17;1.48;;;0.50;;
42148;SDS011;64624;47.208;8.706;2024-02-23T11:59:43;3.78;;;0.63;;
42148;SDS011;64624;47.208;8.706;2024-02-23T12:02:09;1.58;;;0.60;;
42148;SDS011;64624;47.208;8.706;2024-02-23T12:04:35;1.75;;;0.60;;
42148;SDS011;64624;47.208;8.706;2024-02-23T12:07:01;2.35;;;0.63;;
42148;SDS011;64624;47.208;8.706;2024-02-23T12:09:27;3.42;;;0.60;;
42148;SDS011;64624;47.208;8.706;2024-02-23T12:11:53;2.22;;;0.68;;
42148;SDS011;64624;47.208;8.706;2024-02-23T12:14:18;2.83;;;0.88;;
42148;SDS011;64624;47.208;8.706;2024-02-23T12:16:44;7.05;;;1.17;;
42148;SDS011;64624;47.208;8.706;2024-02-23T12:19:10;2.47;;;0.70;;
42148;SDS011;64624;47.208;8.706;2024-02-23T12:21:36;2.13;;;0.60;;
42148;SDS011;64624;47.208;8.706;2024-02-23T12:24:05;3.42;;;1.00;;
42148;SDS011;64624;47.208;8.706;2024-02-23T12:26:34;2.13;;;0.65;;
42148;SDS011;64624;47.208;8.706;2024-02-23T12:29:00;1.48;;;0.60;;
42148;SDS011;64624;47.208;8.706;2024-02-23T12:31:27;2.15;;;0.65;;
42148;SDS011;64624;47.208;8.706;2024-02-23T12:33:53;1.48;;;0.50;;
42148;SDS011;64624;47.208;8.706;2024-02-23T12:36:19;1.95;;;0.55;;
42148;SDS011;64624;47.208;8.706;2024-02-23T12:38:45;2.80;;;0.80;;
42148;SDS011;64624;47.208;8.706;2024-02-23T12:41:11;2.97;;;1.95;;
42148;SDS011;64624;47.208;8.706;2024-02-23T12:43:40;2.20;;;0.65;;
42148;SDS011;64624;47.208;8.706;2024-02-23T12:46:06;1.75;;;0.63;;
42148;SDS011;64624;47.208;8.706;2024-02-23T12:48:33;1.55;;;0.50;;
42148;SDS011;64624;47.208;8.706;2024-02-23T12:51:00;3.10;;;0.70;;
42148;SDS011;64624;47.208;8.706;2024-02-23T12:53:33;2.60;;;0.68;;
42148;SDS011;64624;47.208;8.706;2024-02-23T12:56:04;1.65;;;0.57;;
42148;SDS011;64624;47.208;8.706;2024-02-23T12:58:33;1.83;;;0.77;;
42148;SDS011;64624;47.208;8.706;2024-02-23T13:00:59;1.88;;;0.60;;
42148;SDS011;64624;47.208;8.706;2024-02-23T13:03:25;2.50;;;0.65;;
42148;SDS011;64624;47.208;8.706;2024-02-23T13:05:52;1.08;;;0.50;;
42148;SDS011;64624;47.208;8.706;2024-02-23T13:08:27;1.33;;;0.50;;
42148;SDS011;64624;47.208;8.706;2024-02-23T13:10:54;1.65;;;0.52;;
42148;SDS011;64624;47.208;8.706;2024-02-23T13:13:20;3.70;;;0.88;;
42148;SDS011;64624;47.208;8.706;2024-02-23T13:15:47;0.85;;;0.50;;
42148;SDS011;64624;47.208;8.706;2024-02-23T13:18:14;1.20;;;0.50;;
42148;SDS011;64624;47.208;8.706;2024-02-23T13:20:40;2.15;;;1.30;;
42148;SDS011;64624;47.208;8.706;2024-02-23T13:23:09;1.85;;;0.60;;
42148;SDS011;64624;47.208;8.706;2024-02-23T21:17:34;4.18;;;2.00;;
42148;SDS011;64624;47.208;8.706;2024-02-23T21:20:01;4.10;;;1.98;;
42148;SDS011;64624;47.208;8.706;2024-02-23T21:22:28;3.92;;;1.77;;
42148;SDS011;64624;47.208;8.706;2024-02-23T21:24:54;5.28;;;2.15;;
42148;SDS011;64624;47.208;8.706;2024-02-23T21:27:19;4.00;;;1.77;;
42148;SDS011;64624;47.208;8.706;2024-02-23T21:29:45;5.45;;;2.05;;
42148;SDS011;64624;47.208;8.706;2024-02-23T21:32:11;5.22;;;2.25;;
42148;SDS011;64624;47.208;8.706;2024-02-23T21:34:40;3.65;;;1.40;;
42148;SDS011;64624;47.208;8.706;2024-02-23T21:37:06;3.50;;;1.60;;
42148;SDS011;64624;47.208;8.706;2024-02-23T21:39:32;4.80;;;1.60;;
42148;SDS011;64624;47.208;8.706;2024-02-23T21:41:57;4.95;;;1.60;;
42148;SDS011;64624;47.208;8.706;2024-02-23T21:44:23;3.72;;;1.60;;
42148;SDS011;64624;47.208;8.706;2024-02-23T21:46:49;3.83;;;1.73;;
42148;SDS011;64624;47.208;8.706;2024-02-23T21:49:14;4.15;;;1.80;;
42148;SDS011;64624;47.208;8.706;2024-02-23T21:51:40;5.18;;;1.75;;
42148;SDS011;64624;47.208;8.706;2024-02-23T21:54:06;4.00;;;2.33;;
42148;SDS011;64624;47.208;8.706;2024-02-23T21:56:33;3.63;;;1.63;;
42148;SDS011;64624;47.208;8.706;2024-02-23T21:58:59;4.03;;;1.67;;
42148;SDS011;64624;47.208;8.706;2024-02-23T22:01:24;4.05;;;1.70;;
42148;SDS011;64624;47.208;8.706;2024-02-23T22:03:50;3.85;;;1.58;;
42148;SDS011;64624;47.208;8.706;2024-02-23T22:06:19;4.82;;;1.58;;
42148;SDS011;64624;47.208;8.706;2024-02-23T22:08:48;3.72;;;1.73;;
42148;SDS011;64624;47.208;8.706;2024-02-23T22:11:14;3.35;;;1.63;;
42148;SDS011;64624;47.208;8.706;2024-02-23T22:13:40;4.15;;;1.75;;
42148;SDS011;64624;47.208;8.706;2024-02-23T22:16:06;4.97;;;1.70;;
42148;SDS011;64624;47.208;8.706;2024-02-23T22:18:32;5.10;;;2.10;;
42148;SDS011;64624;47.208;8.706;2024-02-23T22:20:58;6.18;;;2.22;;
42148;SDS011;64624;47.208;8.706;2024-02-23T22:23:26;5.70;;;2.47;;
42148;SDS011;64624;47.208;8.706;2024-02-23T22:25:52;5.28;;;2.55;;
42148;SDS011;64624;47.208;8.706;2024-02-23T22:28:18;5.10;;;2.47;;
42148;SDS011;64624;47.208;8.706;2024-02-23T22:30:43;4.80;;;2.33;;
42148;SDS011;64624;47.208;8.706;2024-02-23T22:33:09;5.45;;;3.05;;
42148;SDS011;64624;47.208;8.706;2024-02-23T22:35:35;6.75;;;2.55;;
42148;SDS011;64624;47.208;8.706;2024-02-23T22:38:00;5.82;;;2.28;;
42148;SDS011;64624;47.208;8.706;2024-02-23T22:40:27;6.05;;;2.00;;
42148;SDS011;64624;47.208;8.706;2024-02-23T22:42:53;8.07;;;2.70;;
42148;SDS011;64624;47.208;8.706;2024-02-23T22:45:19;5.57;;;2.13;;